createdAt,value
2017-06-14T00:00:45.092Z,14.17
2017-06-14T00:01:45.068Z,14.17
2017-06-14T00:02:45.046Z,14.13
2017-06-14T00:03:45.026Z,14.05
2017-06-14T00:04:45.007Z,14.02
2017-06-14T00:05:44.989Z,14.04
2017-06-14T00:06:44.965Z,14.02
2017-06-14T00:07:44.940Z,14.04
2017-06-14T00:08:44.918Z,14.02
2017-06-14T00:09:44.899Z,14.01
2017-06-14T00:10:44.875Z,14.04
2017-06-14T00:11:44.554Z,13.96
2017-06-14T00:12:44.843Z,13.99
2017-06-14T00:13:44.818Z,13.88
2017-06-14T00:14:44.791Z,13.96
2017-06-14T00:15:44.829Z,13.88
2017-06-14T00:16:44.747Z,13.93
2017-06-14T00:17:44.743Z,13.93
2017-06-14T00:18:44.710Z,13.87
2017-06-14T00:19:44.687Z,13.9
2017-06-14T00:20:44.677Z,13.91
2017-06-14T00:21:44.643Z,13.84
2017-06-14T00:22:44.624Z,13.83
2017-06-14T00:23:44.601Z,13.86
2017-06-14T00:24:44.584Z,13.72
2017-06-14T00:25:44.562Z,13.87
2017-06-14T00:26:44.539Z,13.76
2017-06-14T00:27:44.567Z,13.71
2017-06-14T00:28:44.540Z,13.81
2017-06-14T00:29:44.484Z,13.75
2017-06-14T00:30:44.452Z,13.8
2017-06-14T00:31:44.423Z,13.73
2017-06-14T00:32:44.099Z,13.71
2017-06-14T00:33:44.388Z,13.73
2017-06-14T00:34:44.622Z,13.71
2017-06-14T00:35:44.455Z,13.65
2017-06-14T00:36:44.320Z,13.69
2017-06-14T00:37:44.304Z,13.75
2017-06-14T00:38:44.278Z,13.66
2017-06-14T00:39:44.258Z,13.63
2017-06-14T00:40:44.233Z,13.61
2017-06-14T00:41:44.216Z,13.61
2017-06-14T00:42:44.292Z,13.59
2017-06-14T00:43:44.169Z,13.61
2017-06-14T00:44:44.149Z,13.57
2017-06-14T00:45:44.133Z,13.55
2017-06-14T00:46:43.857Z,13.62
2017-06-14T00:47:44.085Z,13.61
2017-06-14T00:48:44.066Z,13.62
2017-06-14T00:49:44.039Z,13.61
2017-06-14T00:50:44.022Z,13.66
2017-06-14T00:51:44.000Z,13.62
2017-06-14T00:52:43.979Z,13.62
2017-06-14T00:53:44.014Z,13.59
2017-06-14T00:54:43.937Z,13.62
2017-06-14T00:55:43.916Z,13.55
2017-06-14T00:56:43.890Z,13.62
2017-06-14T00:57:43.873Z,13.51
2017-06-14T00:58:43.850Z,13.51
2017-06-14T00:59:43.824Z,13.51
2017-06-14T01:00:43.809Z,13.47
2017-06-14T01:01:43.786Z,13.54
2017-06-14T01:02:43.763Z,13.53
2017-06-14T01:03:43.740Z,13.47
2017-06-14T01:04:43.722Z,13.46
2017-06-14T01:05:43.699Z,13.41
2017-06-14T01:06:43.679Z,13.39
2017-06-14T01:07:43.655Z,13.35
2017-06-14T01:08:43.644Z,13.32
2017-06-14T01:09:43.713Z,13.21
2017-06-14T01:10:43.594Z,13.27
2017-06-14T01:11:43.572Z,13.29
2017-06-14T01:12:43.548Z,13.27
2017-06-14T01:13:43.527Z,13.24
2017-06-14T01:14:43.562Z,13.22
2017-06-14T01:15:43.487Z,13.24
2017-06-14T01:16:43.460Z,13.24
2017-06-14T01:17:43.438Z,13.21
2017-06-14T01:18:43.473Z,13.19
2017-06-14T01:19:43.395Z,13.17
2017-06-14T01:20:43.373Z,13.12
2017-06-14T01:21:43.455Z,13.16
2017-06-14T01:22:43.332Z,13.07
2017-06-14T01:23:43.312Z,13.17
2017-06-14T01:24:43.299Z,13.1
2017-06-14T01:25:43.274Z,13.09
2017-06-14T01:26:43.249Z,13.1
2017-06-14T01:27:43.224Z,13.07
2017-06-14T01:28:43.210Z,13.16
2017-06-14T01:29:43.181Z,13.16
2017-06-14T01:30:43.161Z,13.01
2017-06-14T01:31:42.834Z,13.04
2017-06-14T01:32:43.124Z,13.06
2017-06-14T01:33:43.099Z,13.01
2017-06-14T01:34:43.075Z,12.87
2017-06-14T01:35:43.060Z,12.91
2017-06-14T01:36:43.039Z,12.88
2017-06-14T01:37:43.010Z,12.89
2017-06-14T01:38:43.044Z,12.77
2017-06-14T01:39:42.966Z,12.71
2017-06-14T01:40:42.950Z,12.76
2017-06-14T01:41:43.177Z,12.8
2017-06-14T01:42:42.900Z,12.74
2017-06-14T01:43:42.883Z,12.77
2017-06-14T01:44:43.159Z,12.71
2017-06-14T01:45:42.834Z,12.71
2017-06-14T01:46:43.060Z,12.66
2017-06-14T01:47:42.792Z,12.7
2017-06-14T01:48:42.777Z,12.71
2017-06-14T01:49:42.752Z,12.61
2017-06-14T01:50:42.730Z,12.62
2017-06-14T01:51:42.711Z,12.55
2017-06-14T01:52:42.688Z,12.49
2017-06-14T01:53:42.669Z,12.49
2017-06-14T01:54:42.647Z,12.58
2017-06-14T01:55:42.868Z,12.55
2017-06-14T01:56:42.679Z,12.58
2017-06-14T01:57:42.576Z,12.58
2017-06-14T01:58:42.558Z,12.58
2017-06-14T01:59:42.590Z,12.52
2017-06-14T02:00:42.516Z,12.55
2017-06-14T02:01:42.197Z,12.54
2017-06-14T02:02:42.520Z,12.48
2017-06-14T02:03:42.446Z,12.46
2017-06-14T02:04:42.427Z,12.48
2017-06-14T02:05:42.402Z,12.44
2017-06-14T02:06:42.379Z,12.55
2017-06-14T02:07:42.358Z,12.46
2017-06-14T02:08:42.335Z,12.44
2017-06-14T02:09:42.333Z,12.46
2017-06-14T02:10:42.298Z,12.46
2017-06-14T02:11:42.271Z,12.44
2017-06-14T02:12:42.253Z,12.41
2017-06-14T02:13:42.280Z,12.44
2017-06-14T02:14:42.258Z,12.46
2017-06-14T02:15:42.186Z,12.49
2017-06-14T02:16:42.164Z,12.51
2017-06-14T02:17:42.138Z,12.52
2017-06-14T02:18:42.118Z,12.55
2017-06-14T02:19:42.109Z,12.56
2017-06-14T02:20:42.079Z,12.49
2017-06-14T02:21:42.054Z,12.54
2017-06-14T02:22:42.027Z,12.48
2017-06-14T02:23:42.017Z,12.51
2017-06-14T02:24:41.993Z,12.51
2017-06-14T02:25:41.967Z,12.43
2017-06-14T02:26:41.950Z,12.48
2017-06-14T02:27:41.925Z,12.54
2017-06-14T02:28:41.904Z,12.54
2017-06-14T02:29:41.877Z,12.48
2017-06-14T02:30:41.862Z,12.48
2017-06-14T02:31:41.834Z,12.52
2017-06-14T02:32:41.821Z,12.43
2017-06-14T02:33:41.494Z,12.46
2017-06-14T02:34:41.468Z,12.54
2017-06-14T02:35:41.754Z,12.55
2017-06-14T02:36:41.426Z,12.51
2017-06-14T02:37:41.763Z,12.55
2017-06-14T02:38:41.689Z,12.44
2017-06-14T02:39:41.712Z,12.41
2017-06-14T02:40:41.343Z,12.38
2017-06-14T02:41:41.621Z,12.43
2017-06-14T02:42:41.600Z,12.46
2017-06-14T02:43:41.578Z,12.43
2017-06-14T02:44:41.602Z,12.4
2017-06-14T02:45:41.529Z,12.34
2017-06-14T02:46:41.514Z,12.37
2017-06-14T02:47:41.486Z,12.31
2017-06-14T02:48:41.470Z,12.23
2017-06-14T02:49:41.458Z,12.29
2017-06-14T02:50:41.435Z,12.34
2017-06-14T02:51:41.397Z,12.37
2017-06-14T02:52:41.378Z,12.34
2017-06-14T02:53:41.360Z,12.4
2017-06-14T02:54:41.340Z,12.29
2017-06-14T02:55:41.311Z,12.19
2017-06-14T02:56:41.291Z,12.21
2017-06-14T02:57:41.268Z,12.23
2017-06-14T02:58:41.250Z,12.31
2017-06-14T02:59:41.222Z,12.38
2017-06-14T03:00:41.504Z,12.38
2017-06-14T03:01:41.186Z,12.34
2017-06-14T03:02:41.160Z,12.38
2017-06-14T03:03:41.137Z,12.18
2017-06-14T03:04:41.118Z,12.21
2017-06-14T03:05:41.101Z,12.15
2017-06-14T03:06:41.069Z,12.15
2017-06-14T03:07:41.052Z,12.11
2017-06-14T03:08:41.029Z,12.11
2017-06-14T03:09:41.006Z,11.98
2017-06-14T03:10:40.987Z,11.94
2017-06-14T03:11:40.967Z,11.94
2017-06-14T03:12:40.946Z,12
2017-06-14T03:13:40.929Z,12
2017-06-14T03:14:40.896Z,11.97
2017-06-14T03:15:40.871Z,12.04
2017-06-14T03:16:40.863Z,12.04
2017-06-14T03:17:40.834Z,12.07
2017-06-14T03:18:40.819Z,12.11
2017-06-14T03:19:40.785Z,12.07
2017-06-14T03:20:40.764Z,12.12
2017-06-14T03:21:40.742Z,12.12
2017-06-14T03:22:40.724Z,12.13
2017-06-14T03:23:40.707Z,12.07
2017-06-14T03:24:40.730Z,12.08
2017-06-14T03:25:40.657Z,12.13
2017-06-14T03:26:40.637Z,12.05
2017-06-14T03:27:40.611Z,12.01
2017-06-14T03:28:40.604Z,12.01
2017-06-14T03:29:40.564Z,12.01
2017-06-14T03:30:40.552Z,11.96
2017-06-14T03:31:40.526Z,12.11
2017-06-14T03:32:40.502Z,12.03
2017-06-14T03:33:40.535Z,12.07
2017-06-14T03:34:40.459Z,12.21
2017-06-14T03:35:40.442Z,12.18
2017-06-14T03:36:40.424Z,12.23
2017-06-14T03:37:40.394Z,12.22
2017-06-14T03:38:40.375Z,12.23
2017-06-14T03:39:40.403Z,12.21
2017-06-14T03:40:40.330Z,12.23
2017-06-14T03:41:40.307Z,12.33
2017-06-14T03:42:40.292Z,12.3
2017-06-14T03:43:40.263Z,12.33
2017-06-14T03:44:40.242Z,12.25
2017-06-14T03:45:40.219Z,12.18
2017-06-14T03:46:40.208Z,12.19
2017-06-14T03:47:40.194Z,12.19
2017-06-14T03:48:40.164Z,12.15
2017-06-14T03:49:40.135Z,12.31
2017-06-14T03:50:40.107Z,12.37
2017-06-14T03:51:40.087Z,12.34
2017-06-14T03:52:40.067Z,12.41
2017-06-14T03:53:40.040Z,12.44
2017-06-14T03:54:40.226Z,12.49
2017-06-14T03:55:40.000Z,12.62
2017-06-14T03:56:39.981Z,12.7
2017-06-14T03:57:39.959Z,12.76
2017-06-14T03:58:39.936Z,12.88
2017-06-14T03:59:39.921Z,12.88
2017-06-14T04:00:39.894Z,12.99
2017-06-14T04:01:39.871Z,12.94
2017-06-14T04:02:39.855Z,13.12
2017-06-14T04:03:39.836Z,13.07
2017-06-14T04:04:39.809Z,13.22
2017-06-14T04:05:39.835Z,13.28
2017-06-14T04:06:39.982Z,13.43
2017-06-14T04:07:39.747Z,13.51
2017-06-14T04:08:39.778Z,13.48
2017-06-14T04:09:39.706Z,13.5
2017-06-14T04:10:39.682Z,13.46
2017-06-14T04:11:39.665Z,13.55
2017-06-14T04:12:39.643Z,13.57
2017-06-14T04:13:39.616Z,13.79
2017-06-14T04:14:39.598Z,13.84
2017-06-14T04:15:39.575Z,13.9
2017-06-14T04:16:39.558Z,13.87
2017-06-14T04:17:39.537Z,13.96
2017-06-14T04:18:39.514Z,13.94
2017-06-14T04:19:39.492Z,14.02
2017-06-14T04:20:39.478Z,14.27
2017-06-14T04:21:39.454Z,14.38
2017-06-14T04:22:39.489Z,14.6
2017-06-14T04:23:39.409Z,14.64
2017-06-14T04:24:39.395Z,14.67
2017-06-14T04:25:39.381Z,14.72
2017-06-14T04:26:39.356Z,14.78
2017-06-14T04:27:39.335Z,14.85
2017-06-14T04:28:39.307Z,14.98
2017-06-14T04:29:39.293Z,15.2
2017-06-14T04:30:39.269Z,15.25
2017-06-14T04:31:38.944Z,15.31
2017-06-14T04:32:39.233Z,15.33
2017-06-14T04:33:39.210Z,15.58
2017-06-14T04:34:39.188Z,15.74
2017-06-14T04:35:39.169Z,15.86
2017-06-14T04:36:39.150Z,16.03
2017-06-14T04:37:39.127Z,16.11
2017-06-14T04:38:39.110Z,16.07
2017-06-14T04:39:39.091Z,16.34
2017-06-14T04:40:39.069Z,16.48
2017-06-14T04:41:39.056Z,16.47
2017-06-14T04:42:39.028Z,16.52
2017-06-14T04:43:39.010Z,16.48
2017-06-14T04:44:38.989Z,16.62
2017-06-14T04:45:38.976Z,16.62
2017-06-14T04:46:38.946Z,16.65
2017-06-14T04:47:38.931Z,16.66
2017-06-14T04:48:38.911Z,16.65
2017-06-14T04:49:38.896Z,16.66
2017-06-14T04:50:38.885Z,16.77
2017-06-14T04:51:38.858Z,16.85
2017-06-14T04:52:38.842Z,16.8
2017-06-14T04:53:38.522Z,16.91
2017-06-14T04:54:38.798Z,16.98
2017-06-14T04:55:38.779Z,17.02
2017-06-14T04:56:38.822Z,17.21
2017-06-14T04:57:38.745Z,17.32
2017-06-14T04:58:38.725Z,17.28
2017-06-14T04:59:38.706Z,17.36
2017-06-14T05:00:38.689Z,17.42
2017-06-14T05:01:38.719Z,17.39
2017-06-14T05:02:38.054Z,17.49
2017-06-14T05:03:38.629Z,17.71
2017-06-14T05:04:38.672Z,17.81
2017-06-14T05:05:38.595Z,17.99
2017-06-14T05:06:38.604Z,18.11
2017-06-14T05:07:38.560Z,18.21
2017-06-14T05:08:38.545Z,18.13
2017-06-14T05:09:38.526Z,18.07
2017-06-14T05:10:38.504Z,18.19
2017-06-14T05:11:38.492Z,18.26
2017-06-14T05:12:38.472Z,18.31
2017-06-14T05:13:38.453Z,18.44
2017-06-14T05:14:38.438Z,18.59
2017-06-14T05:15:38.417Z,18.68
2017-06-14T05:16:38.451Z,18.75
2017-06-14T05:17:38.382Z,18.94
2017-06-14T05:18:38.071Z,18.97
2017-06-14T05:19:38.394Z,19.13
2017-06-14T05:20:38.334Z,19.07
2017-06-14T05:21:38.324Z,19.17
2017-06-14T05:22:38.294Z,19.31
2017-06-14T05:23:38.284Z,19.55
2017-06-14T05:24:38.310Z,19.64
2017-06-14T05:25:38.254Z,19.78
2017-06-14T05:26:38.227Z,19.79
2017-06-14T05:27:38.214Z,19.94
2017-06-14T05:28:38.199Z,20.08
2017-06-14T05:29:38.182Z,20.19
2017-06-14T05:30:37.865Z,20.07
2017-06-14T05:31:38.152Z,20.1
2017-06-14T05:32:38.152Z,20.25
2017-06-14T05:33:38.115Z,20.38
2017-06-14T05:34:38.145Z,20.46
2017-06-14T05:35:38.088Z,20.63
2017-06-14T05:36:38.073Z,20.72
2017-06-14T05:37:38.050Z,20.88
2017-06-14T05:38:38.039Z,20.94
2017-06-14T05:39:38.019Z,21
2017-06-14T05:40:38.005Z,20.85
2017-06-14T05:41:37.989Z,20.98
2017-06-14T05:42:37.676Z,21.11
2017-06-14T05:43:37.677Z,21.16
2017-06-14T05:44:37.356Z,20.98
2017-06-14T05:45:37.637Z,21
2017-06-14T05:46:37.921Z,20.96
2017-06-14T05:47:37.910Z,21.05
2017-06-14T05:48:37.283Z,21.13
2017-06-14T05:49:37.872Z,21.11
2017-06-14T05:50:37.561Z,21.31
2017-06-14T05:51:37.841Z,21.16
2017-06-14T05:52:37.828Z,21.06
2017-06-14T05:53:37.822Z,20.98
2017-06-14T05:54:37.793Z,20.97
2017-06-14T05:55:37.780Z,21.15
2017-06-14T05:56:37.767Z,21.19
2017-06-14T05:57:37.747Z,21.18
2017-06-14T05:58:37.736Z,21.15
2017-06-14T05:59:37.724Z,21.22
2017-06-14T06:00:37.711Z,21.15
2017-06-14T06:01:37.695Z,21.26
2017-06-14T06:02:37.728Z,21.3
2017-06-14T06:03:37.367Z,21.38
2017-06-14T06:04:37.651Z,21.53
2017-06-14T06:05:37.644Z,21.61
2017-06-14T06:06:37.625Z,21.73
2017-06-14T06:07:37.608Z,21.7
2017-06-14T06:08:37.604Z,21.96
2017-06-14T06:09:37.579Z,22.01
2017-06-14T06:10:37.564Z,22.15
2017-06-14T06:11:37.554Z,22.24
2017-06-14T06:12:37.534Z,22.51
2017-06-14T06:13:37.522Z,22.41
2017-06-14T06:14:37.509Z,22.48
2017-06-14T06:15:37.500Z,22.38
2017-06-14T06:16:37.483Z,22.17
2017-06-14T06:17:37.473Z,22.38
2017-06-14T06:18:37.458Z,22.45
2017-06-14T06:19:37.445Z,22.56
2017-06-14T06:20:37.482Z,22.52
2017-06-14T06:21:37.421Z,22.46
2017-06-14T06:22:37.417Z,22.48
2017-06-14T06:23:37.440Z,22.7
2017-06-14T06:24:37.383Z,22.84
2017-06-14T06:25:37.062Z,22.81
2017-06-14T06:26:37.361Z,22.86
2017-06-14T06:27:37.039Z,22.82
2017-06-14T06:28:37.336Z,22.85
2017-06-14T06:29:37.315Z,22.74
2017-06-14T06:30:37.292Z,22.81
2017-06-14T06:31:37.291Z,22.78
2017-06-14T06:32:37.282Z,22.85
2017-06-14T06:33:37.263Z,22.86
2017-06-14T06:34:37.255Z,23.11
2017-06-14T06:35:37.237Z,23.42
2017-06-14T06:36:37.229Z,23.39
2017-06-14T06:37:37.211Z,23.56
2017-06-14T06:38:37.200Z,23.78
2017-06-14T06:39:37.189Z,23.77
2017-06-14T06:40:37.210Z,23.62
2017-06-14T06:41:37.161Z,23.5
2017-06-14T06:42:37.155Z,23.77
2017-06-14T06:43:37.142Z,23.9
2017-06-14T06:44:37.130Z,23.74
2017-06-14T06:45:37.173Z,23.62
2017-06-14T06:46:37.106Z,23.45
2017-06-14T06:47:36.791Z,23.35
2017-06-14T06:48:36.781Z,23.35
2017-06-14T06:49:37.070Z,23.38
2017-06-14T06:50:37.062Z,23.26
2017-06-14T06:51:37.056Z,23.37
2017-06-14T06:52:37.045Z,23.31
2017-06-14T06:53:37.032Z,23.15
2017-06-14T06:54:37.063Z,23.04
2017-06-14T06:55:37.000Z,22.97
2017-06-14T06:56:36.988Z,22.91
2017-06-14T06:57:37.029Z,23
2017-06-14T06:58:36.967Z,23.06
2017-06-14T06:59:51.872Z,23.42
2017-06-14T07:00:36.945Z,23.47
2017-06-14T07:01:36.962Z,23.64
2017-06-14T07:02:36.923Z,23.86
2017-06-14T07:03:36.914Z,23.96
2017-06-14T07:04:36.894Z,24.15
2017-06-14T07:05:36.896Z,24.26
2017-06-14T07:06:36.931Z,24.26
2017-06-14T07:07:36.865Z,24.29
2017-06-14T07:08:36.856Z,24.29
2017-06-14T07:09:36.850Z,24.46
2017-06-14T07:10:36.831Z,24.68
2017-06-14T07:11:36.816Z,25.01
2017-06-14T07:12:36.813Z,25.12
2017-06-14T07:13:36.796Z,25.17
2017-06-14T07:14:36.794Z,25.17
2017-06-14T07:15:36.777Z,25.01
2017-06-14T07:16:36.768Z,24.86
2017-06-14T07:17:37.061Z,24.71
2017-06-14T07:18:37.048Z,24.44
2017-06-14T07:19:36.782Z,24.15
2017-06-14T07:20:37.029Z,24
2017-06-14T07:21:36.712Z,24.02
2017-06-14T07:22:36.755Z,23.9
2017-06-14T07:23:36.702Z,23.9
2017-06-14T07:24:36.685Z,23.77
2017-06-14T07:25:36.979Z,23.89
2017-06-14T07:26:36.655Z,24.12
2017-06-14T07:27:36.654Z,24.36
2017-06-14T07:28:36.697Z,24.63
2017-06-14T07:29:36.634Z,24.75
2017-06-14T07:30:36.671Z,25.12
2017-06-14T07:31:36.611Z,25.3
2017-06-14T07:32:36.594Z,25.31
2017-06-14T07:33:36.584Z,25.54
2017-06-14T07:34:36.577Z,25.72
2017-06-14T07:35:36.569Z,25.71
2017-06-14T07:36:36.562Z,25.75
2017-06-14T07:37:36.541Z,25.59
2017-06-14T07:38:36.239Z,25.46
2017-06-14T07:39:36.524Z,25.41
2017-06-14T07:40:36.220Z,25.38
2017-06-14T07:41:36.511Z,25.34
2017-06-14T07:42:36.796Z,25.45
2017-06-14T07:43:36.495Z,25.49
2017-06-14T07:44:36.480Z,25.46
2017-06-14T07:45:36.473Z,25.75
2017-06-14T07:46:36.467Z,26.09
2017-06-14T07:47:36.457Z,26.08
2017-06-14T07:48:36.507Z,26.01
2017-06-14T07:49:36.440Z,25.96
2017-06-14T07:50:36.423Z,26.04
2017-06-14T07:51:36.420Z,26
2017-06-14T07:52:36.410Z,26.03
2017-06-14T07:53:36.411Z,26.03
2017-06-14T07:54:36.392Z,26.17
2017-06-14T07:55:36.391Z,26.23
2017-06-14T07:56:36.377Z,26.46
2017-06-14T07:57:36.367Z,26.54
2017-06-14T07:58:36.357Z,26.34
2017-06-14T07:59:36.346Z,26.24
2017-06-14T08:00:36.342Z,26.47
2017-06-14T08:01:36.335Z,26.84
2017-06-14T08:02:36.374Z,27.02
2017-06-14T08:03:36.325Z,26.93
2017-06-14T08:04:36.362Z,26.9
2017-06-14T08:05:36.006Z,27.02
2017-06-14T08:06:36.294Z,26.98
2017-06-14T08:07:36.288Z,26.78
2017-06-14T08:08:36.274Z,26.59
2017-06-14T08:09:36.272Z,26.46
2017-06-14T08:10:36.259Z,26.41
2017-06-14T08:11:36.257Z,26.46
2017-06-14T08:12:36.240Z,26.44
2017-06-14T08:13:36.286Z,26.34
2017-06-14T08:14:36.231Z,26.66
2017-06-14T08:15:36.278Z,26.84
2017-06-14T08:16:35.965Z,26.98
2017-06-14T08:18:36.198Z,27.21
2017-06-14T08:19:36.198Z,27.02
2017-06-14T08:20:36.190Z,27.01
2017-06-14T08:21:36.228Z,27.16
2017-06-14T08:22:36.471Z,27.01
2017-06-14T08:23:35.886Z,26.98
2017-06-14T08:24:36.158Z,27.18
2017-06-14T08:25:36.142Z,27.21
2017-06-14T08:26:36.139Z,27.59
2017-06-14T08:27:36.131Z,27.88
2017-06-14T08:28:36.131Z,27.77
2017-06-14T08:29:35.866Z,27.5
2017-06-14T08:30:36.172Z,27.24
2017-06-14T08:31:36.105Z,27.13
2017-06-14T08:32:36.091Z,27.16
2017-06-14T08:33:36.092Z,27.27
2017-06-14T08:34:36.083Z,27.23
2017-06-14T08:35:36.074Z,26.94
2017-06-14T08:36:36.085Z,26.76
2017-06-14T08:37:36.061Z,26.91
2017-06-14T08:38:35.762Z,26.9
2017-06-14T08:39:36.037Z,26.71
2017-06-14T08:40:36.034Z,26.69
2017-06-14T08:41:36.025Z,26.59
2017-06-14T08:42:35.727Z,26.79
2017-06-14T08:43:36.015Z,26.72
2017-06-14T08:44:36.036Z,26.72
2017-06-14T08:45:36.052Z,26.79
2017-06-14T08:46:35.990Z,26.84
2017-06-14T08:47:35.982Z,26.72
2017-06-14T08:48:35.972Z,26.61
2017-06-14T08:49:36.037Z,26.66
2017-06-14T08:50:35.969Z,27.02
2017-06-14T08:51:35.955Z,26.98
2017-06-14T08:52:35.955Z,27.12
2017-06-14T08:53:35.960Z,27.33
2017-06-14T08:54:36.019Z,27.46
2017-06-14T08:55:35.924Z,27.49
2017-06-14T08:56:35.920Z,27.48
2017-06-14T08:57:35.911Z,27.52
2017-06-14T08:58:35.608Z,27.61
2017-06-14T08:59:35.953Z,27.71
2017-06-14T09:00:35.891Z,28.02
2017-06-14T09:01:35.896Z,28.23
2017-06-14T09:02:35.881Z,28.43
2017-06-14T09:03:35.878Z,28.76
2017-06-14T09:04:35.567Z,28.82
2017-06-14T09:05:35.857Z,28.6
2017-06-14T09:06:35.857Z,28.54
2017-06-14T09:07:35.893Z,28.42
2017-06-14T09:08:35.856Z,28.25
2017-06-14T09:09:35.839Z,27.81
2017-06-14T09:10:35.832Z,27.52
2017-06-14T09:11:35.856Z,27.38
2017-06-14T09:12:35.835Z,27.27
2017-06-14T09:13:35.813Z,27.3
2017-06-14T09:14:35.903Z,27.25
2017-06-14T09:15:35.802Z,27.38
2017-06-14T09:16:35.794Z,27.48
2017-06-14T09:17:35.792Z,27.68
2017-06-14T09:18:35.777Z,27.91
2017-06-14T09:19:35.777Z,28.02
2017-06-14T09:20:35.770Z,28.15
2017-06-14T09:21:35.758Z,28.05
2017-06-14T09:22:35.753Z,27.93
2017-06-14T09:23:35.443Z,27.74
2017-06-14T09:24:35.743Z,27.43
2017-06-14T09:25:35.731Z,27.24
2017-06-14T09:26:35.726Z,27.03
2017-06-14T09:27:35.723Z,26.84
2017-06-14T09:28:35.724Z,26.75
2017-06-14T09:29:35.706Z,26.97
2017-06-14T09:30:35.735Z,27.2
2017-06-14T09:31:35.698Z,27.23
2017-06-14T09:32:35.735Z,27.18
2017-06-14T09:33:35.377Z,26.94
2017-06-14T09:34:35.370Z,26.91
2017-06-14T09:35:35.665Z,26.97
2017-06-14T09:36:35.662Z,26.98
2017-06-14T09:37:35.660Z,27.02
2017-06-14T09:38:35.646Z,27.03
2017-06-14T09:39:35.646Z,27.2
2017-06-14T09:40:35.639Z,27.24
2017-06-14T09:41:35.624Z,27.03
2017-06-14T09:42:35.613Z,27.02
2017-06-14T09:43:35.661Z,26.98
2017-06-14T09:44:35.603Z,27.13
2017-06-14T09:45:35.597Z,26.93
2017-06-14T09:46:35.585Z,26.73
2017-06-14T09:47:35.628Z,26.71
2017-06-14T09:48:35.793Z,26.79
2017-06-14T09:49:35.616Z,27.16
2017-06-14T09:50:35.563Z,27.08
2017-06-14T09:51:35.562Z,26.88
2017-06-14T09:52:35.546Z,26.72
2017-06-14T09:53:35.534Z,26.83
2017-06-14T09:54:35.532Z,26.86
2017-06-14T09:55:35.528Z,26.88
2017-06-14T09:56:35.815Z,27.15
2017-06-14T09:57:35.534Z,27.05
2017-06-14T09:58:35.499Z,26.98
2017-06-14T09:59:35.487Z,27.08
2017-06-14T10:00:35.584Z,27.16
2017-06-14T10:01:35.530Z,27.2
2017-06-14T10:02:35.474Z,27.23
2017-06-14T10:03:35.463Z,27.24
2017-06-14T10:04:35.457Z,27.38
2017-06-14T10:05:35.448Z,27.46
2017-06-14T10:06:35.446Z,27.71
2017-06-14T10:07:35.439Z,27.45
2017-06-14T10:08:35.462Z,27.3
2017-06-14T10:09:35.427Z,27.27
2017-06-14T10:10:35.419Z,27.34
2017-06-14T10:11:35.414Z,27.35
2017-06-14T10:12:35.410Z,27.43
2017-06-14T10:13:35.385Z,27.45
2017-06-14T10:14:35.380Z,27.43
2017-06-14T10:15:35.378Z,27.42
2017-06-14T10:16:35.373Z,27.43
2017-06-14T10:17:35.359Z,27.48
2017-06-14T10:18:35.389Z,27.61
2017-06-14T10:19:35.343Z,27.84
2017-06-14T10:20:35.042Z,28.01
2017-06-14T10:21:35.341Z,27.99
2017-06-14T10:22:35.388Z,28.14
2017-06-14T10:23:35.320Z,28.32
2017-06-14T10:24:35.311Z,28.35
2017-06-14T10:25:35.308Z,28.36
2017-06-14T10:26:35.301Z,28.38
2017-06-14T10:27:35.289Z,28.25
2017-06-14T10:28:35.286Z,28.25
2017-06-14T10:29:35.286Z,28.17
2017-06-14T10:30:35.275Z,27.98
2017-06-14T10:31:35.311Z,27.77
2017-06-14T10:32:35.257Z,27.69
2017-06-14T10:33:35.249Z,27.68
2017-06-14T10:34:35.261Z,27.74
2017-06-14T10:35:35.236Z,27.72
2017-06-14T10:36:35.235Z,27.5
2017-06-14T10:37:35.225Z,27.45
2017-06-14T10:38:34.913Z,27.48
2017-06-14T10:39:34.966Z,27.28
2017-06-14T10:40:35.205Z,27.09
2017-06-14T10:41:35.268Z,26.86
2017-06-14T10:42:35.190Z,26.68
2017-06-14T10:43:35.182Z,26.28
2017-06-14T10:44:35.178Z,26.01
2017-06-14T10:45:35.173Z,25.97
2017-06-14T10:46:35.164Z,26.08
2017-06-14T10:47:35.157Z,26.34
2017-06-14T10:48:34.927Z,26.39
2017-06-14T10:49:35.133Z,26.32
2017-06-14T10:50:35.129Z,26.28
2017-06-14T10:51:35.123Z,26.36
2017-06-14T10:52:35.121Z,26.47
2017-06-14T10:53:35.110Z,26.65
2017-06-14T10:54:34.799Z,26.59
2017-06-14T10:55:35.099Z,26.75
2017-06-14T10:56:34.789Z,26.81
2017-06-14T10:57:35.078Z,26.75
2017-06-14T10:58:35.070Z,26.72
2017-06-14T10:59:35.063Z,26.59
2017-06-14T11:00:35.056Z,26.51
2017-06-14T11:01:35.048Z,26.35
2017-06-14T11:02:35.191Z,26.34
2017-06-14T11:03:35.033Z,26.51
2017-06-14T11:04:35.036Z,26.39
2017-06-14T11:05:35.016Z,26.23
2017-06-14T11:06:35.016Z,26.2
2017-06-14T11:07:35.004Z,26.23
2017-06-14T11:08:35.016Z,26.19
2017-06-14T11:09:34.987Z,25.98
2017-06-14T11:10:34.979Z,25.6
2017-06-14T11:11:34.968Z,25.39
2017-06-14T11:12:34.972Z,25.17
2017-06-14T11:13:34.943Z,25.09
2017-06-14T11:14:34.936Z,24.99
2017-06-14T11:15:34.932Z,24.98
2017-06-14T11:16:34.920Z,24.82
2017-06-14T11:17:34.956Z,24.68
2017-06-14T11:18:34.898Z,24.44
2017-06-14T11:19:34.888Z,24.3
2017-06-14T11:20:34.882Z,24.06
2017-06-14T11:21:34.866Z,23.79
2017-06-14T11:22:34.855Z,23.62
2017-06-14T11:23:34.845Z,23.37
2017-06-14T11:24:34.824Z,23.18
2017-06-14T11:25:34.865Z,23.01
2017-06-14T11:26:34.802Z,22.86
2017-06-14T11:27:34.841Z,22.88
2017-06-14T11:28:34.775Z,22.85
2017-06-14T11:29:34.763Z,22.84
2017-06-14T11:30:34.450Z,23.03
2017-06-14T11:31:34.734Z,23.01
2017-06-14T11:32:34.767Z,22.86
2017-06-14T11:33:34.705Z,22.99
2017-06-14T11:34:34.704Z,22.88
2017-06-14T11:35:34.678Z,23.09
2017-06-14T11:36:34.667Z,23.07
2017-06-14T11:37:34.644Z,23.04
2017-06-14T11:38:34.633Z,23.11
2017-06-14T11:39:34.608Z,23.12
2017-06-14T11:40:34.605Z,23.06
2017-06-14T11:41:34.586Z,22.97
2017-06-14T11:42:34.564Z,23.01
2017-06-14T11:43:34.553Z,23
2017-06-14T11:44:34.538Z,22.97
2017-06-14T11:45:34.525Z,22.88
2017-06-14T11:46:34.513Z,22.91
2017-06-14T11:47:34.495Z,22.84
2017-06-14T11:48:34.169Z,22.85
2017-06-14T11:49:34.460Z,22.86
2017-06-14T11:50:34.477Z,22.75
2017-06-14T11:51:34.433Z,22.72
2017-06-14T11:52:34.415Z,22.64
2017-06-14T11:53:34.409Z,22.81
2017-06-14T11:54:34.389Z,22.93
2017-06-14T11:55:34.345Z,23.11
2017-06-14T11:56:34.349Z,23.15
2017-06-14T11:57:34.018Z,23.16
2017-06-14T11:58:34.342Z,23.18
2017-06-14T11:59:34.296Z,23.12
2017-06-14T12:00:34.289Z,23.04
2017-06-14T12:01:34.261Z,23.06
2017-06-14T12:02:33.929Z,23.01
2017-06-14T12:03:33.956Z,23
2017-06-14T12:04:34.215Z,22.97
2017-06-14T12:05:34.238Z,22.93
2017-06-14T12:06:34.184Z,22.86
2017-06-14T12:07:34.175Z,22.69
2017-06-14T12:08:34.137Z,22.67
2017-06-14T12:09:33.813Z,22.61
2017-06-14T12:10:34.107Z,22.51
2017-06-14T12:11:34.146Z,22.61
2017-06-14T12:12:33.772Z,22.6
2017-06-14T12:13:34.053Z,22.6
2017-06-14T12:14:34.040Z,22.51
2017-06-14T12:15:33.722Z,22.59
2017-06-14T12:16:34.046Z,22.46
2017-06-14T12:17:33.983Z,22.57
2017-06-14T12:18:33.961Z,22.6
2017-06-14T12:19:33.944Z,22.66
2017-06-14T12:20:33.985Z,22.72
2017-06-14T12:21:33.914Z,22.72
2017-06-14T12:22:33.893Z,22.7
2017-06-14T12:23:33.889Z,22.85
2017-06-14T12:24:33.863Z,22.85
2017-06-14T12:25:33.844Z,22.82
2017-06-14T12:26:33.825Z,22.88
2017-06-14T12:27:33.819Z,22.88
2017-06-14T12:28:33.790Z,22.86
2017-06-14T12:29:33.470Z,22.79
2017-06-14T12:30:33.463Z,22.78
2017-06-14T12:31:33.433Z,22.84
2017-06-14T12:32:33.717Z,22.82
2017-06-14T12:33:33.702Z,22.86
2017-06-14T12:34:33.389Z,22.94
2017-06-14T12:35:33.672Z,22.89
2017-06-14T12:36:33.660Z,23
2017-06-14T12:37:33.634Z,23
2017-06-14T12:38:33.316Z,22.91
2017-06-14T12:39:33.844Z,22.96
2017-06-14T12:40:33.580Z,23.11
2017-06-14T12:41:33.567Z,23.04
2017-06-14T12:42:33.554Z,23.09
2017-06-14T12:43:33.578Z,23.07
2017-06-14T12:44:33.513Z,23.12
2017-06-14T12:45:33.491Z,23.03
2017-06-14T12:46:33.473Z,23.15
2017-06-14T12:47:33.468Z,23.15
2017-06-14T12:48:33.140Z,23.09
2017-06-14T12:49:33.422Z,23.07
2017-06-14T12:50:33.618Z,23.16
2017-06-14T12:51:33.389Z,23.23
2017-06-14T12:52:33.376Z,23.22
2017-06-14T12:53:33.355Z,23.26
2017-06-14T12:54:33.335Z,23.22
2017-06-14T12:55:33.341Z,23.21
2017-06-14T12:56:33.326Z,23.07